sensor_id;sensor_type;location;lat;lon;timestamp;temperature;humidity
31765;DHT22;18338;53.240;8.798;2023-08-07T00:01:53;15.10;99.90
31765;DHT22;18338;53.240;8.798;2023-08-07T00:04:20;15.10;99.90
31765;DHT22;18338;53.240;8.798;2023-08-07T00:06:47;15.20;99.90
31765;DHT22;18338;53.240;8.798;2023-08-07T00:09:13;15.10;99.90
31765;DHT22;18338;53.240;8.798;2023-08-07T00:11:40;15.10;99.90
31765;DHT22;18338;53.240;8.798;2023-08-07T00:14:07;15.20;99.90
31765;DHT22;18338;53.240;8.798;2023-08-07T00:16:34;15.20;99.90
31765;DHT22;18338;53.240;8.798;2023-08-07T00:19:02;15.20;99.90
31765;DHT22;18338;53.240;8.798;2023-08-07T00:21:29;15.10;99.90
31765;DHT22;18338;53.240;8.798;2023-08-07T00:23:55;15.20;99.90
31765;DHT22;18338;53.240;8.798;2023-08-07T00:26:22;15.20;99.90
31765;DHT22;18338;53.240;8.798;2023-08-07T00:28:49;15.20;99.90
31765;DHT22;18338;53.240;8.798;2023-08-07T00:31:15;15.20;99.90
31765;DHT22;18338;53.240;8.798;2023-08-07T00:33:42;15.20;99.90
31765;DHT22;18338;53.240;8.798;2023-08-07T00:36:09;15.20;99.90
31765;DHT22;18338;53.240;8.798;2023-08-07T00:38:36;15.10;99.90
31765;DHT22;18338;53.240;8.798;2023-08-07T00:41:02;15.10;99.90
31765;DHT22;18338;53.240;8.798;2023-08-07T00:43:29;15.10;99.90
31765;DHT22;18338;53.240;8.798;2023-08-07T00:45:56;15.00;99.90
31765;DHT22;18338;53.240;8.798;2023-08-07T00:48:23;15.00;99.90
31765;DHT22;18338;53.240;8.798;2023-08-07T00:50:51;15.10;99.90
31765;DHT22;18338;53.240;8.798;2023-08-07T00:53:18;15.00;99.90
31765;DHT22;18338;53.240;8.798;2023-08-07T00:55:45;15.00;99.90
31765;DHT22;18338;53.240;8.798;2023-08-07T00:58:12;14.90;99.90
31765;DHT22;18338;53.240;8.798;2023-08-07T01:00:39;14.90;99.90
31765;DHT22;18338;53.240;8.798;2023-08-07T01:03:08;14.90;99.90
31765;DHT22;18338;53.240;8.798;2023-08-07T01:05:37;14.90;99.90
31765;DHT22;18338;53.240;8.798;2023-08-07T01:08:04;15.00;99.90
31765;DHT22;18338;53.240;8.798;2023-08-07T01:13:54;15.00;99.90
31765;DHT22;18338;53.240;8.798;2023-08-07T01:16:34;15.00;99.90
31765;DHT22;18338;53.240;8.798;2023-08-07T01:19:03;15.10;99.90
31765;DHT22;18338;53.240;8.798;2023-08-07T01:21:32;15.00;99.90
31765;DHT22;18338;53.240;8.798;2023-08-07T01:23:59;15.00;99.90
31765;DHT22;18338;53.240;8.798;2023-08-07T01:26:26;15.00;99.90
31765;DHT22;18338;53.240;8.798;2023-08-07T01:29:06;14.90;99.90
31765;DHT22;18338;53.240;8.798;2023-08-07T01:31:39;14.90;99.90
31765;DHT22;18338;53.240;8.798;2023-08-07T01:34:08;14.90;99.90
31765;DHT22;18338;53.240;8.798;2023-08-07T01:36:38;14.90;99.90
31765;DHT22;18338;53.240;8.798;2023-08-07T01:39:05;15.00;99.90
31765;DHT22;18338;53.240;8.798;2023-08-07T01:41:35;15.00;99.90
31765;DHT22;18338;53.240;8.798;2023-08-07T01:44:02;15.00;99.90
31765;DHT22;18338;53.240;8.798;2023-08-07T01:46:30;15.00;99.90
31765;DHT22;18338;53.240;8.798;2023-08-07T01:48:57;15.00;99.90
31765;DHT22;18338;53.240;8.798;2023-08-07T01:51:23;15.00;99.90
31765;DHT22;18338;53.240;8.798;2023-08-07T01:53:50;15.00;99.90
31765;DHT22;18338;53.240;8.798;2023-08-07T01:56:17;15.00;99.90
31765;DHT22;18338;53.240;8.798;2023-08-07T01:58:43;15.00;99.90
31765;DHT22;18338;53.240;8.798;2023-08-07T02:01:10;15.00;99.90
31765;DHT22;18338;53.240;8.798;2023-08-07T02:03:37;15.00;99.90
31765;DHT22;18338;53.240;8.798;2023-08-07T02:06:03;15.00;99.90
31765;DHT22;18338;53.240;8.798;2023-08-07T02:08:30;15.00;99.90
31765;DHT22;18338;53.240;8.798;2023-08-07T02:10:57;15.00;99.90
31765;DHT22;18338;53.240;8.798;2023-08-07T02:13:23;15.10;99.90
31765;DHT22;18338;53.240;8.798;2023-08-07T02:15:50;15.10;99.90
31765;DHT22;18338;53.240;8.798;2023-08-07T02:18:16;15.10;99.90
31765;DHT22;18338;53.240;8.798;2023-08-07T02:20:43;15.10;99.90
31765;DHT22;18338;53.240;8.798;2023-08-07T02:23:10;15.00;99.90
31765;DHT22;18338;53.240;8.798;2023-08-07T02:25:36;15.00;99.90
31765;DHT22;18338;53.240;8.798;2023-08-07T02:28:03;14.90;99.90
31765;DHT22;18338;53.240;8.798;2023-08-07T02:30:31;14.90;99.90
31765;DHT22;18338;53.240;8.798;2023-08-07T02:32:57;14.90;99.90
31765;DHT22;18338;53.240;8.798;2023-08-07T02:35:24;14.90;99.90
31765;DHT22;18338;53.240;8.798;2023-08-07T02:37:51;14.80;99.90
31765;DHT22;18338;53.240;8.798;2023-08-07T02:40:17;14.80;99.90
31765;DHT22;18338;53.240;8.798;2023-08-07T02:42:45;14.80;99.90
31765;DHT22;18338;53.240;8.798;2023-08-07T02:45:12;14.80;99.90
31765;DHT22;18338;53.240;8.798;2023-08-07T02:47:39;14.80;99.90
31765;DHT22;18338;53.240;8.798;2023-08-07T02:50:06;14.80;99.90
31765;DHT22;18338;53.240;8.798;2023-08-07T02:52:32;14.80;99.90
31765;DHT22;18338;53.240;8.798;2023-08-07T02:54:59;14.80;99.90
31765;DHT22;18338;53.240;8.798;2023-08-07T02:57:26;14.80;99.90
31765;DHT22;18338;53.240;8.798;2023-08-07T02:59:52;14.90;99.90
31765;DHT22;18338;53.240;8.798;2023-08-07T03:02:19;14.90;99.90
31765;DHT22;18338;53.240;8.798;2023-08-07T03:04:46;14.90;99.90
31765;DHT22;18338;53.240;8.798;2023-08-07T03:07:13;14.90;99.90
31765;DHT22;18338;53.240;8.798;2023-08-07T03:09:39;14.90;99.90
31765;DHT22;18338;53.240;8.798;2023-08-07T03:12:06;14.90;99.90
31765;DHT22;18338;53.240;8.798;2023-08-07T03:14:33;14.90;99.90
31765;DHT22;18338;53.240;8.798;2023-08-07T03:16:59;14.90;99.90
31765;DHT22;18338;53.240;8.798;2023-08-07T03:19:26;14.90;99.90
31765;DHT22;18338;53.240;8.798;2023-08-07T03:21:53;14.90;99.90
31765;DHT22;18338;53.240;8.798;2023-08-07T03:24:19;14.90;99.90
31765;DHT22;18338;53.240;8.798;2023-08-07T03:26:46;15.00;99.90
31765;DHT22;18338;53.240;8.798;2023-08-07T03:29:14;15.10;99.90
31765;DHT22;18338;53.240;8.798;2023-08-07T03:31:40;15.10;99.90
31765;DHT22;18338;53.240;8.798;2023-08-07T03:34:07;15.20;99.90
31765;DHT22;18338;53.240;8.798;2023-08-07T03:36:34;15.20;99.90
31765;DHT22;18338;53.240;8.798;2023-08-07T03:39:01;15.30;99.90
31765;DHT22;18338;53.240;8.798;2023-08-07T03:41:28;15.30;99.90
31765;DHT22;18338;53.240;8.798;2023-08-07T03:43:55;15.30;99.90
31765;DHT22;18338;53.240;8.798;2023-08-07T03:46:21;15.30;99.90
31765;DHT22;18338;53.240;8.798;2023-08-07T03:48:48;15.30;99.90
31765;DHT22;18338;53.240;8.798;2023-08-07T03:51:15;15.30;99.90
31765;DHT22;18338;53.240;8.798;2023-08-07T03:53:43;15.30;99.90
31765;DHT22;18338;53.240;8.798;2023-08-07T03:56:10;15.40;99.90
31765;DHT22;18338;53.240;8.798;2023-08-07T03:58:36;15.30;99.90
31765;DHT22;18338;53.240;8.798;2023-08-07T04:01:03;15.30;99.90
31765;DHT22;18338;53.240;8.798;2023-08-07T04:03:30;15.30;99.90
31765;DHT22;18338;53.240;8.798;2023-08-07T04:05:57;15.20;99.90
31765;DHT22;18338;53.240;8.798;2023-08-07T04:08:27;15.10;99.90
31765;DHT22;18338;53.240;8.798;2023-08-07T04:11:00;15.10;99.90
31765;DHT22;18338;53.240;8.798;2023-08-07T04:13:28;15.10;99.90
31765;DHT22;18338;53.240;8.798;2023-08-07T04:15:55;15.10;99.90
31765;DHT22;18338;53.240;8.798;2023-08-07T04:18:22;15.10;99.90
31765;DHT22;18338;53.240;8.798;2023-08-07T04:20:50;15.10;99.90
31765;DHT22;18338;53.240;8.798;2023-08-07T04:23:17;15.10;99.90
31765;DHT22;18338;53.240;8.798;2023-08-07T04:25:46;15.10;99.90
31765;DHT22;18338;53.240;8.798;2023-08-07T04:28:13;15.10;99.90
31765;DHT22;18338;53.240;8.798;2023-08-07T04:30:41;15.10;99.90
31765;DHT22;18338;53.240;8.798;2023-08-07T04:33:08;15.10;99.90
31765;DHT22;18338;53.240;8.798;2023-08-07T04:35:35;15.10;99.90
31765;DHT22;18338;53.240;8.798;2023-08-07T04:38:02;15.10;99.90
31765;DHT22;18338;53.240;8.798;2023-08-07T04:40:29;15.10;99.90
31765;DHT22;18338;53.240;8.798;2023-08-07T04:42:56;15.00;99.90
31765;DHT22;18338;53.240;8.798;2023-08-07T04:45:23;15.00;99.90
31765;DHT22;18338;53.240;8.798;2023-08-07T04:47:50;15.00;99.90
31765;DHT22;18338;53.240;8.798;2023-08-07T04:50:17;15.00;99.90
31765;DHT22;18338;53.240;8.798;2023-08-07T04:52:44;15.00;99.90
31765;DHT22;18338;53.240;8.798;2023-08-07T04:55:11;15.00;99.90
31765;DHT22;18338;53.240;8.798;2023-08-07T04:57:38;15.00;99.90
31765;DHT22;18338;53.240;8.798;2023-08-07T05:00:05;15.00;99.90
31765;DHT22;18338;53.240;8.798;2023-08-07T05:02:32;15.00;99.90
31765;DHT22;18338;53.240;8.798;2023-08-07T05:04:59;14.90;99.90
31765;DHT22;18338;53.240;8.798;2023-08-07T05:07:26;14.90;99.90
31765;DHT22;18338;53.240;8.798;2023-08-07T05:09:53;14.90;99.90
31765;DHT22;18338;53.240;8.798;2023-08-07T05:12:20;14.80;99.90
31765;DHT22;18338;53.240;8.798;2023-08-07T05:14:46;14.90;99.90
31765;DHT22;18338;53.240;8.798;2023-08-07T05:17:13;14.90;99.90
31765;DHT22;18338;53.240;8.798;2023-08-07T05:19:40;14.90;99.90
31765;DHT22;18338;53.240;8.798;2023-08-07T05:22:07;14.80;99.90
31765;DHT22;18338;53.240;8.798;2023-08-07T05:24:33;14.90;99.90
31765;DHT22;18338;53.240;8.798;2023-08-07T05:27:07;14.90;99.90
31765;DHT22;18338;53.240;8.798;2023-08-07T05:29:35;14.90;99.90
31765;DHT22;18338;53.240;8.798;2023-08-07T05:32:10;15.00;99.90
31765;DHT22;18338;53.240;8.798;2023-08-07T05:34:38;15.00;99.90
31765;DHT22;18338;53.240;8.798;2023-08-07T05:37:05;15.00;99.90
31765;DHT22;18338;53.240;8.798;2023-08-07T05:39:33;15.00;99.90
31765;DHT22;18338;53.240;8.798;2023-08-07T05:41:59;15.00;99.90
31765;DHT22;18338;53.240;8.798;2023-08-07T05:44:26;15.00;99.90
31765;DHT22;18338;53.240;8.798;2023-08-07T05:46:53;15.00;99.90
31765;DHT22;18338;53.240;8.798;2023-08-07T05:49:21;15.00;99.90
31765;DHT22;18338;53.240;8.798;2023-08-07T05:51:51;14.90;99.90
31765;DHT22;18338;53.240;8.798;2023-08-07T05:54:18;15.00;99.90
31765;DHT22;18338;53.240;8.798;2023-08-07T05:56:44;14.90;99.90
31765;DHT22;18338;53.240;8.798;2023-08-07T05:59:11;15.00;99.90
31765;DHT22;18338;53.240;8.798;2023-08-07T06:01:38;15.00;99.90
31765;DHT22;18338;53.240;8.798;2023-08-07T06:04:05;15.00;99.90
31765;DHT22;18338;53.240;8.798;2023-08-07T06:06:31;15.00;99.90
31765;DHT22;18338;53.240;8.798;2023-08-07T06:09:01;15.00;99.90
31765;DHT22;18338;53.240;8.798;2023-08-07T06:11:30;15.00;99.90
31765;DHT22;18338;53.240;8.798;2023-08-07T06:13:56;15.20;99.90
31765;DHT22;18338;53.240;8.798;2023-08-07T06:16:23;15.20;99.90
31765;DHT22;18338;53.240;8.798;2023-08-07T06:18:50;15.20;99.90
31765;DHT22;18338;53.240;8.798;2023-08-07T06:21:17;15.20;99.90
31765;DHT22;18338;53.240;8.798;2023-08-07T06:23:43;15.20;99.90
31765;DHT22;18338;53.240;8.798;2023-08-07T06:26:10;15.20;99.90
31765;DHT22;18338;53.240;8.798;2023-08-07T06:28:37;15.30;99.90
31765;DHT22;18338;53.240;8.798;2023-08-07T06:31:08;15.40;99.90
31765;DHT22;18338;53.240;8.798;2023-08-07T06:33:36;15.50;99.90
31765;DHT22;18338;53.240;8.798;2023-08-07T06:36:03;15.70;99.90
31765;DHT22;18338;53.240;8.798;2023-08-07T06:38:31;15.70;99.90
31765;DHT22;18338;53.240;8.798;2023-08-07T06:40:58;15.60;99.90
31765;DHT22;18338;53.240;8.798;2023-08-07T06:43:24;15.50;99.90
31765;DHT22;18338;53.240;8.798;2023-08-07T06:45:53;15.40;99.90
31765;DHT22;18338;53.240;8.798;2023-08-07T06:48:20;15.30;99.90
31765;DHT22;18338;53.240;8.798;2023-08-07T06:50:47;15.40;99.90
31765;DHT22;18338;53.240;8.798;2023-08-07T06:53:14;15.50;99.90
31765;DHT22;18338;53.240;8.798;2023-08-07T06:55:42;15.70;99.90
31765;DHT22;18338;53.240;8.798;2023-08-07T06:58:09;15.80;99.90
31765;DHT22;18338;53.240;8.798;2023-08-07T07:00:36;15.90;99.90
31765;DHT22;18338;53.240;8.798;2023-08-07T07:03:04;15.80;99.90
31765;DHT22;18338;53.240;8.798;2023-08-07T07:05:32;15.80;99.90
31765;DHT22;18338;53.240;8.798;2023-08-07T07:07:59;15.80;99.90
31765;DHT22;18338;53.240;8.798;2023-08-07T07:10:26;15.90;99.90
31765;DHT22;18338;53.240;8.798;2023-08-07T07:12:54;16.00;99.90
31765;DHT22;18338;53.240;8.798;2023-08-07T07:15:21;16.10;99.90
31765;DHT22;18338;53.240;8.798;2023-08-07T07:17:48;16.20;99.90
31765;DHT22;18338;53.240;8.798;2023-08-07T07:20:15;16.30;99.90
31765;DHT22;18338;53.240;8.798;2023-08-07T07:22:42;16.50;99.90
31765;DHT22;18338;53.240;8.798;2023-08-07T07:25:09;16.90;99.90
31765;DHT22;18338;53.240;8.798;2023-08-07T07:27:36;16.90;99.90
31765;DHT22;18338;53.240;8.798;2023-08-07T07:30:03;17.30;99.90
31765;DHT22;18338;53.240;8.798;2023-08-07T07:32:29;17.60;99.90
31765;DHT22;18338;53.240;8.798;2023-08-07T07:34:56;17.70;99.90
31765;DHT22;18338;53.240;8.798;2023-08-07T07:37:23;17.50;99.90
31765;DHT22;18338;53.240;8.798;2023-08-07T07:39:50;17.20;99.90
31765;DHT22;18338;53.240;8.798;2023-08-07T07:42:17;17.30;99.90
31765;DHT22;18338;53.240;8.798;2023-08-07T07:44:43;17.20;99.90
31765;DHT22;18338;53.240;8.798;2023-08-07T07:47:10;17.10;99.90
31765;DHT22;18338;53.240;8.798;2023-08-07T07:49:44;17.00;99.90
31765;DHT22;18338;53.240;8.798;2023-08-07T07:52:11;17.00;99.90
31765;DHT22;18338;53.240;8.798;2023-08-07T07:54:38;17.20;99.90
31765;DHT22;18338;53.240;8.798;2023-08-07T07:57:04;17.20;99.90
31765;DHT22;18338;53.240;8.798;2023-08-07T07:59:31;17.40;99.90
31765;DHT22;18338;53.240;8.798;2023-08-07T08:01:58;17.70;99.90
31765;DHT22;18338;53.240;8.798;2023-08-07T08:04:25;18.40;99.90
31765;DHT22;18338;53.240;8.798;2023-08-07T08:06:52;18.40;99.90
31765;DHT22;18338;53.240;8.798;2023-08-07T08:09:19;18.30;99.90
31765;DHT22;18338;53.240;8.798;2023-08-07T08:11:45;18.10;99.90
31765;DHT22;18338;53.240;8.798;2023-08-07T08:14:12;18.00;99.90
31765;DHT22;18338;53.240;8.798;2023-08-07T08:16:39;17.90;99.90
31765;DHT22;18338;53.240;8.798;2023-08-07T08:19:05;17.70;99.90
31765;DHT22;18338;53.240;8.798;2023-08-07T08:21:34;17.80;99.90
31765;DHT22;18338;53.240;8.798;2023-08-07T08:24:01;18.10;99.90
31765;DHT22;18338;53.240;8.798;2023-08-07T08:26:27;18.30;99.90
31765;DHT22;18338;53.240;8.798;2023-08-07T08:28:54;18.30;99.90
31765;DHT22;18338;53.240;8.798;2023-08-07T08:31:21;18.40;99.90
31765;DHT22;18338;53.240;8.798;2023-08-07T08:33:50;18.50;99.90
31765;DHT22;18338;53.240;8.798;2023-08-07T08:36:17;18.90;99.90
31765;DHT22;18338;53.240;8.798;2023-08-07T08:38:44;19.10;99.90
31765;DHT22;18338;53.240;8.798;2023-08-07T08:41:11;18.40;99.90
31765;DHT22;18338;53.240;8.798;2023-08-07T08:43:40;18.20;99.90
31765;DHT22;18338;53.240;8.798;2023-08-07T08:46:08;17.70;99.90
31765;DHT22;18338;53.240;8.798;2023-08-07T08:48:39;16.90;99.90
31765;DHT22;18338;53.240;8.798;2023-08-07T08:51:08;16.50;99.90
31765;DHT22;18338;53.240;8.798;2023-08-07T08:53:35;16.00;99.90
31765;DHT22;18338;53.240;8.798;2023-08-07T08:56:02;15.80;99.90
31765;DHT22;18338;53.240;8.798;2023-08-07T08:58:29;16.50;99.90
31765;DHT22;18338;53.240;8.798;2023-08-07T09:00:57;17.70;99.90
31765;DHT22;18338;53.240;8.798;2023-08-07T09:03:25;18.00;99.90
31765;DHT22;18338;53.240;8.798;2023-08-07T09:05:58;18.30;99.90
31765;DHT22;18338;53.240;8.798;2023-08-07T09:08:30;17.50;99.90
31765;DHT22;18338;53.240;8.798;2023-08-07T09:10:57;16.80;99.90
31765;DHT22;18338;53.240;8.798;2023-08-07T09:13:24;16.20;99.90
31765;DHT22;18338;53.240;8.798;2023-08-07T09:15:53;16.00;99.90
31765;DHT22;18338;53.240;8.798;2023-08-07T09:18:20;16.10;99.90
31765;DHT22;18338;53.240;8.798;2023-08-07T09:20:47;16.60;99.90
31765;DHT22;18338;53.240;8.798;2023-08-07T09:23:15;17.10;99.90
31765;DHT22;18338;53.240;8.798;2023-08-07T09:25:43;18.10;99.90
31765;DHT22;18338;53.240;8.798;2023-08-07T09:28:11;20.40;99.90
31765;DHT22;18338;53.240;8.798;2023-08-07T09:30:38;22.10;99.90
31765;DHT22;18338;53.240;8.798;2023-08-07T09:33:05;23.60;99.90
31765;DHT22;18338;53.240;8.798;2023-08-07T09:35:32;23.50;99.90
31765;DHT22;18338;53.240;8.798;2023-08-07T09:38:00;24.80;99.90
31765;DHT22;18338;53.240;8.798;2023-08-07T09:40:29;25.10;99.90
31765;DHT22;18338;53.240;8.798;2023-08-07T09:42:57;23.80;99.90
31765;DHT22;18338;53.240;8.798;2023-08-07T09:45:27;23.70;99.90
31765;DHT22;18338;53.240;8.798;2023-08-07T09:48:03;23.50;99.90
31765;DHT22;18338;53.240;8.798;2023-08-07T09:50:30;23.60;99.90
31765;DHT22;18338;53.240;8.798;2023-08-07T09:52:58;23.50;99.30
31765;DHT22;18338;53.240;8.798;2023-08-07T09:55:25;24.30;99.90
31765;DHT22;18338;53.240;8.798;2023-08-07T09:57:53;25.20;97.10
31765;DHT22;18338;53.240;8.798;2023-08-07T10:00:20;25.50;96.90
31765;DHT22;18338;53.240;8.798;2023-08-07T10:02:49;26.80;95.90
31765;DHT22;18338;53.240;8.798;2023-08-07T10:05:17;26.90;93.70
31765;DHT22;18338;53.240;8.798;2023-08-07T10:07:44;27.40;92.40
31765;DHT22;18338;53.240;8.798;2023-08-07T10:10:10;27.70;91.60
31765;DHT22;18338;53.240;8.798;2023-08-07T10:12:38;26.70;92.30
31765;DHT22;18338;53.240;8.798;2023-08-07T10:15:06;26.90;92.70
31765;DHT22;18338;53.240;8.798;2023-08-07T10:17:33;24.70;94.90
31765;DHT22;18338;53.240;8.798;2023-08-07T10:20:00;25.40;94.70
31765;DHT22;18338;53.240;8.798;2023-08-07T10:22:29;24.10;94.70
31765;DHT22;18338;53.240;8.798;2023-08-07T10:25:00;22.10;97.30
31765;DHT22;18338;53.240;8.798;2023-08-07T10:27:29;20.60;99.90
31765;DHT22;18338;53.240;8.798;2023-08-07T10:29:59;19.50;99.90
31765;DHT22;18338;53.240;8.798;2023-08-07T10:32:27;19.30;99.90
31765;DHT22;18338;53.240;8.798;2023-08-07T10:34:55;18.90;99.90
31765;DHT22;18338;53.240;8.798;2023-08-07T10:37:42;18.20;99.90
31765;DHT22;18338;53.240;8.798;2023-08-07T10:40:11;18.30;99.90
31765;DHT22;18338;53.240;8.798;2023-08-07T10:43:01;18.40;99.90
31765;DHT22;18338;53.240;8.798;2023-08-07T10:45:37;18.20;99.90
31765;DHT22;18338;53.240;8.798;2023-08-07T10:48:05;17.50;99.90
31765;DHT22;18338;53.240;8.798;2023-08-07T10:50:35;17.00;99.90
31765;DHT22;18338;53.240;8.798;2023-08-07T10:55:54;17.50;99.90
31765;DHT22;18338;53.240;8.798;2023-08-07T10:58:32;18.60;99.90
31765;DHT22;18338;53.240;8.798;2023-08-07T11:03:53;19.50;99.90
31765;DHT22;18338;53.240;8.798;2023-08-07T11:06:26;19.80;99.90
31765;DHT22;18338;53.240;8.798;2023-08-07T11:08:53;20.40;99.90
31765;DHT22;18338;53.240;8.798;2023-08-07T11:11:20;20.60;99.90
31765;DHT22;18338;53.240;8.798;2023-08-07T11:13:47;20.70;99.90
31765;DHT22;18338;53.240;8.798;2023-08-07T11:16:14;21.80;99.90
31765;DHT22;18338;53.240;8.798;2023-08-07T11:18:42;22.50;99.90
31765;DHT22;18338;53.240;8.798;2023-08-07T11:21:09;22.40;99.90
31765;DHT22;18338;53.240;8.798;2023-08-07T11:23:40;23.10;99.90
31765;DHT22;18338;53.240;8.798;2023-08-07T11:26:08;22.30;99.90
31765;DHT22;18338;53.240;8.798;2023-08-07T11:28:34;22.10;99.90
31765;DHT22;18338;53.240;8.798;2023-08-07T11:31:01;21.90;99.90
31765;DHT22;18338;53.240;8.798;2023-08-07T11:33:29;22.20;99.90
31765;DHT22;18338;53.240;8.798;2023-08-07T11:35:56;22.40;99.90
31765;DHT22;18338;53.240;8.798;2023-08-07T11:38:40;22.10;99.90
31765;DHT22;18338;53.240;8.798;2023-08-07T11:41:07;22.00;99.90
31765;DHT22;18338;53.240;8.798;2023-08-07T11:43:34;23.30;99.90
31765;DHT22;18338;53.240;8.798;2023-08-07T11:46:06;23.10;99.90
31765;DHT22;18338;53.240;8.798;2023-08-07T11:48:36;21.60;99.90
31765;DHT22;18338;53.240;8.798;2023-08-07T11:51:04;20.50;99.90
31765;DHT22;18338;53.240;8.798;2023-08-07T11:53:32;22.50;99.90
31765;DHT22;18338;53.240;8.798;2023-08-07T11:56:02;23.70;96.60
31765;DHT22;18338;53.240;8.798;2023-08-07T11:58:34;24.60;95.00
31765;DHT22;18338;53.240;8.798;2023-08-07T12:01:10;24.30;96.00
31765;DHT22;18338;53.240;8.798;2023-08-07T12:03:42;24.60;93.70
31765;DHT22;18338;53.240;8.798;2023-08-07T12:06:09;25.70;92.10
31765;DHT22;18338;53.240;8.798;2023-08-07T12:08:40;24.80;92.90
31765;DHT22;18338;53.240;8.798;2023-08-07T12:14:15;21.20;99.40
31765;DHT22;18338;53.240;8.798;2023-08-07T12:16:48;20.80;99.90
31765;DHT22;18338;53.240;8.798;2023-08-07T12:19:16;20.10;99.90
31765;DHT22;18338;53.240;8.798;2023-08-07T12:21:43;19.60;99.90
31765;DHT22;18338;53.240;8.798;2023-08-07T12:24:13;20.10;99.90
31765;DHT22;18338;53.240;8.798;2023-08-07T12:26:41;20.60;99.90
31765;DHT22;18338;53.240;8.798;2023-08-07T12:32:10;21.80;99.90
31765;DHT22;18338;53.240;8.798;2023-08-07T12:34:37;21.40;99.90
31765;DHT22;18338;53.240;8.798;2023-08-07T12:37:10;20.20;99.90
31765;DHT22;18338;53.240;8.798;2023-08-07T12:39:36;19.20;99.90
31765;DHT22;18338;53.240;8.798;2023-08-07T12:42:06;18.30;99.90
31765;DHT22;18338;53.240;8.798;2023-08-07T12:44:36;17.60;99.90
31765;DHT22;18338;53.240;8.798;2023-08-07T12:47:02;17.50;99.90
31765;DHT22;18338;53.240;8.798;2023-08-07T12:49:29;17.90;99.90
31765;DHT22;18338;53.240;8.798;2023-08-07T12:51:56;17.60;99.90
31765;DHT22;18338;53.240;8.798;2023-08-07T12:54:24;16.60;99.90
31765;DHT22;18338;53.240;8.798;2023-08-07T12:56:51;16.50;99.90
31765;DHT22;18338;53.240;8.798;2023-08-07T12:59:18;17.10;99.90
31765;DHT22;18338;53.240;8.798;2023-08-07T13:01:45;17.00;99.90
31765;DHT22;18338;53.240;8.798;2023-08-07T13:04:11;17.00;99.90
31765;DHT22;18338;53.240;8.798;2023-08-07T13:06:41;17.10;99.90
31765;DHT22;18338;53.240;8.798;2023-08-07T13:09:08;17.00;99.90
31765;DHT22;18338;53.240;8.798;2023-08-07T13:11:35;17.40;99.90
31765;DHT22;18338;53.240;8.798;2023-08-07T13:14:02;19.40;99.90
31765;DHT22;18338;53.240;8.798;2023-08-07T13:16:28;21.30;99.90
31765;DHT22;18338;53.240;8.798;2023-08-07T13:18:55;21.70;99.90
31765;DHT22;18338;53.240;8.798;2023-08-07T13:21:22;21.40;99.90
31765;DHT22;18338;53.240;8.798;2023-08-07T13:23:48;22.10;99.90
31765;DHT22;18338;53.240;8.798;2023-08-07T13:26:30;22.50;99.90
31765;DHT22;18338;53.240;8.798;2023-08-07T13:28:57;21.50;99.90
31765;DHT22;18338;53.240;8.798;2023-08-07T13:31:23;20.30;99.90
31765;DHT22;18338;53.240;8.798;2023-08-07T13:33:50;19.70;99.90
31765;DHT22;18338;53.240;8.798;2023-08-07T13:36:17;19.20;99.90
31765;DHT22;18338;53.240;8.798;2023-08-07T13:38:44;18.70;99.90
31765;DHT22;18338;53.240;8.798;2023-08-07T13:41:13;17.70;99.90
31765;DHT22;18338;53.240;8.798;2023-08-07T13:43:39;17.10;99.90
31765;DHT22;18338;53.240;8.798;2023-08-07T13:46:06;17.00;99.90
31765;DHT22;18338;53.240;8.798;2023-08-07T13:48:33;17.10;99.90
31765;DHT22;18338;53.240;8.798;2023-08-07T13:51:00;17.10;99.90
31765;DHT22;18338;53.240;8.798;2023-08-07T13:53:30;17.20;99.90
31765;DHT22;18338;53.240;8.798;2023-08-07T13:55:57;17.40;99.90
31765;DHT22;18338;53.240;8.798;2023-08-07T13:58:24;17.40;99.90
31765;DHT22;18338;53.240;8.798;2023-08-07T14:00:50;17.80;99.90
31765;DHT22;18338;53.240;8.798;2023-08-07T14:03:17;18.80;99.90
31765;DHT22;18338;53.240;8.798;2023-08-07T14:05:44;19.90;99.90
31765;DHT22;18338;53.240;8.798;2023-08-07T14:08:11;20.30;99.90
31765;DHT22;18338;53.240;8.798;2023-08-07T14:10:38;20.70;99.90
31765;DHT22;18338;53.240;8.798;2023-08-07T14:13:07;20.50;99.90
31765;DHT22;18338;53.240;8.798;2023-08-07T14:15:34;19.60;99.90
31765;DHT22;18338;53.240;8.798;2023-08-07T14:18:00;19.00;99.90
31765;DHT22;18338;53.240;8.798;2023-08-07T14:20:27;19.30;99.90
31765;DHT22;18338;53.240;8.798;2023-08-07T14:22:54;19.30;99.90
31765;DHT22;18338;53.240;8.798;2023-08-07T14:25:41;18.60;99.90
31765;DHT22;18338;53.240;8.798;2023-08-07T14:28:07;18.20;99.90
31765;DHT22;18338;53.240;8.798;2023-08-07T14:30:34;18.60;99.90
31765;DHT22;18338;53.240;8.798;2023-08-07T14:33:01;19.30;99.90
31765;DHT22;18338;53.240;8.798;2023-08-07T14:35:28;20.40;99.90
31765;DHT22;18338;53.240;8.798;2023-08-07T14:37:54;21.60;99.90
31765;DHT22;18338;53.240;8.798;2023-08-07T14:40:21;21.20;99.90
31765;DHT22;18338;53.240;8.798;2023-08-07T14:42:48;20.10;99.90
31765;DHT22;18338;53.240;8.798;2023-08-07T14:45:14;20.00;99.90
31765;DHT22;18338;53.240;8.798;2023-08-07T14:47:45;20.40;99.90
31765;DHT22;18338;53.240;8.798;2023-08-07T14:50:12;20.70;99.90
31765;DHT22;18338;53.240;8.798;2023-08-07T14:52:39;21.30;99.90
31765;DHT22;18338;53.240;8.798;2023-08-07T14:55:05;22.30;99.90
31765;DHT22;18338;53.240;8.798;2023-08-07T14:57:32;21.80;99.90
31765;DHT22;18338;53.240;8.798;2023-08-07T14:59:59;20.30;99.90
31765;DHT22;18338;53.240;8.798;2023-08-07T15:02:26;19.70;99.90
31765;DHT22;18338;53.240;8.798;2023-08-07T15:04:52;19.40;99.90
31765;DHT22;18338;53.240;8.798;2023-08-07T15:07:19;19.10;99.90
31765;DHT22;18338;53.240;8.798;2023-08-07T15:09:46;18.50;99.90
31765;DHT22;18338;53.240;8.798;2023-08-07T15:12:16;18.00;99.90
31765;DHT22;18338;53.240;8.798;2023-08-07T15:14:43;17.50;99.90
31765;DHT22;18338;53.240;8.798;2023-08-07T15:17:10;17.10;99.90
31765;DHT22;18338;53.240;8.798;2023-08-07T15:19:36;17.00;99.90
31765;DHT22;18338;53.240;8.798;2023-08-07T15:22:03;17.10;99.90
31765;DHT22;18338;53.240;8.798;2023-08-07T15:24:30;17.20;99.90
31765;DHT22;18338;53.240;8.798;2023-08-07T15:26:56;17.30;99.90
31765;DHT22;18338;53.240;8.798;2023-08-07T15:29:26;17.50;99.90
31765;DHT22;18338;53.240;8.798;2023-08-07T15:31:52;17.70;99.90
31765;DHT22;18338;53.240;8.798;2023-08-07T15:34:19;17.90;99.90
31765;DHT22;18338;53.240;8.798;2023-08-07T15:36:46;18.00;99.90
31765;DHT22;18338;53.240;8.798;2023-08-07T15:39:12;18.40;99.90
31765;DHT22;18338;53.240;8.798;2023-08-07T15:41:39;19.10;99.90
31765;DHT22;18338;53.240;8.798;2023-08-07T15:44:06;19.10;99.90
31765;DHT22;18338;53.240;8.798;2023-08-07T15:46:33;18.90;99.90
31765;DHT22;18338;53.240;8.798;2023-08-07T15:48:59;18.60;99.90